Shadow Hills, California
Current Conditions -  °F | °C
As of 7:53 PM on Saturday 22 Nov 2014 (Local Time) from KBUR Reporting Station
Clear Clear  
Wind Chill: 16°   Ceiling: Unl
Heat Index: 16°   Visibility: 10mi
Dew Point: 11°   Wind: 3mph
Humidity: 70%   Direction: 150°SSE
Pressure: 30.03"   Gusts: NA
Location:  34.2294°N, 118.357°W
Report Text: KBUR 230353Z 15003KT 10SM CLR 16/11 A3003 RMK AO2 SLP159 T01610106
Loading
Personal Weather Stations






























Interactive Weather Map New forecast layout! Learn more

10-Day Weather Forecast

Advertisements
Track Severe Weather on mobile